< Typhoon 201517 2015 Season Typhoon 201519 >
Typhoon 201518 (ETAU)
General InformationTrack Information on Google MapsDetailed Wind InformationForecast History on Google MapsAccess Analytics MapList of All Images || NewsDisaster Info.WeblogTrackbackTyphoon FrontTwiphoonTyphoon Now!Typhoon ImaginationDisaster Info. XMLResourceGoogle EarthGE AnimationAtom FeedGeoJSON
Detalied Best Track (Time Zone = UTC)
Year Month Day Hour Lat. Long. Pressure (hPa) Wind (kt) Class Image Chart
2015 9 6 00 19.8 139.7 1004 0 2 Image Chart
2015 9 6 06 20.4 139.4 1002 0 2 Image Chart
2015 9 6 12 21.2 139.2 1002 0 2 Image Chart
2015 9 6 18 22.1 139.0 1002 0 2 Image Chart
2015 9 7 00 23.1 138.8 1002 0 2 Image Chart
2015 9 7 06 24.1 138.6 1000 0 2 Image Chart
2015 9 7 12 25.1 138.4 998 35 3 Image Chart
2015 9 7 18 26.3 138.3 996 40 3 Image Chart
2015 9 8 00 27.7 138.3 990 45 3 Image Chart
2015 9 8 06 29.3 138.3 985 50 4 Image Chart
2015 9 8 12 31.0 138.3 985 50 4 Image Chart
2015 9 8 15 32.2 138.0 985 50 4 Image Chart
2015 9 8 18 33.1 137.6 985 50 4 Image Chart
2015 9 8 21 33.8 137.3 990 45 3 Image Chart
2015 9 9 00 34.5 137.1 990 45 3 Image Chart
2015 9 9 03 35.9 136.7 996 35 3 Image Chart
2015 9 9 06 37.2 136.3 998 0 6 Image Chart
2015 9 9 12 38.0 135.0 998 0 6 Image Chart
2015 9 9 18 39.0 134.4 998 0 6 Image Chart
2015 9 10 00 39.3 134.7 998 0 6 Image Chart
2015 9 10 06 39.9 135.2 998 0 6 Image Chart
2015 9 10 12 39.9 135.6 1000 0 6 Image Chart
2015 9 10 18 39.9 136.0 1000 0 6 Image Chart
2015 9 11 00 40.0 136.8 1000 0 6 Image Chart
2015 9 11 06 40.5 137.7 1000 0 6 Image Chart
2015 9 11 12 41.0 138.5 1000 0 6 Image Chart
Japan Meteorological Agency Best Track Data | Correction Date : 2015-10-15
< Typhoon 201517 2015 Season Typhoon 201519 >

Help